createdAt,value
2018-02-11T00:00:14.406Z,932.5
2018-02-11T00:01:18.214Z,927.8
2018-02-11T00:02:22.340Z,932.5
2018-02-11T00:03:26.064Z,932.5
2018-02-11T00:04:36.635Z,932.4
2018-02-11T00:05:40.794Z,932.5
2018-02-11T00:06:46.053Z,932.4
2018-02-11T00:07:49.429Z,932.4
2018-02-11T00:08:52.678Z,932.4
2018-02-11T00:09:54.693Z,932.5
2018-02-11T00:10:56.623Z,932.3
2018-02-11T00:11:59.227Z,932.3
2018-02-11T00:13:01.331Z,932.3
2018-02-11T00:14:04.031Z,932.4
2018-02-11T00:15:09.462Z,932.3
2018-02-11T00:16:13.155Z,932.4
2018-02-11T00:17:15.847Z,932.4
2018-02-11T00:18:17.821Z,932.4
2018-02-11T00:19:19.548Z,932.3
2018-02-11T00:20:22.062Z,932.3
2018-02-11T00:21:24.479Z,932.4
2018-02-11T00:22:26.549Z,932.3
2018-02-11T00:23:28.487Z,932.3
2018-02-11T00:24:31.239Z,928.1
2018-02-11T00:25:36.448Z,932.3
2018-02-11T00:26:38.823Z,932.4
2018-02-11T00:27:41.253Z,932.4
2018-02-11T00:28:43.156Z,932.3
2018-02-11T00:29:45.108Z,932.4
2018-02-11T00:30:47.188Z,932.3
2018-02-11T00:31:49.069Z,932.4
2018-02-11T00:32:51.460Z,932.3
2018-02-11T00:33:53.355Z,932.4
2018-02-11T00:34:55.296Z,932.4
2018-02-11T00:36:00.801Z,932.4
2018-02-11T00:37:03.244Z,932.3
2018-02-11T00:38:06.042Z,932.3
2018-02-11T00:39:07.735Z,932.3
2018-02-11T00:40:09.709Z,932.3
2018-02-11T00:41:11.678Z,932.3
2018-02-11T00:42:14.236Z,932.3
2018-02-11T00:43:16.398Z,932.4
2018-02-11T00:44:18.109Z,932.3
2018-02-11T00:45:20.985Z,932.3
2018-02-11T00:46:26.490Z,932.3
2018-02-11T00:47:29.277Z,932.2
2018-02-11T00:48:31.180Z,932.3
2018-02-11T00:49:33.189Z,932.3
2018-02-11T00:50:35.149Z,932.2
2018-02-11T00:51:37.036Z,932.3
2018-02-11T00:52:39.046Z,932.2
2018-02-11T00:53:41.052Z,932.2
2018-02-11T00:54:43.648Z,932.3
2018-02-11T00:55:45.606Z,932.2
2018-02-11T00:56:53.136Z,932.2
2018-02-11T00:57:55.109Z,932.2
2018-02-11T00:58:57.233Z,932.2
2018-02-11T00:59:59.286Z,932.3
2018-02-11T01:01:01.908Z,932.2
2018-02-11T01:02:04.475Z,932.2
2018-02-11T01:03:06.530Z,932.2
2018-02-11T01:04:09.735Z,932.1
2018-02-11T01:05:11.779Z,932.2
2018-02-11T01:06:14.743Z,932.2
2018-02-11T01:07:20.351Z,932.1
2018-02-11T01:08:22.304Z,932.1
2018-02-11T01:09:24.325Z,932.1
2018-02-11T01:10:27.260Z,932.1
2018-02-11T01:11:30.172Z,932.1
2018-02-11T01:12:32.116Z,932.1
2018-02-11T01:13:34.082Z,932.1
2018-02-11T01:14:36.597Z,932.1
2018-02-11T01:15:38.569Z,932.1
2018-02-11T01:16:42.193Z,932.1
2018-02-11T01:17:48.559Z,932
2018-02-11T01:18:52.087Z,932
2018-02-11T01:19:54.339Z,932
2018-02-11T01:20:56.343Z,927.3
2018-02-11T01:21:58.756Z,932
2018-02-11T01:23:00.585Z,932
2018-02-11T01:24:02.529Z,932
2018-02-11T01:25:06.856Z,932
2018-02-11T01:26:08.724Z,932
2018-02-11T01:27:10.627Z,931.9
2018-02-11T01:28:16.187Z,932
2018-02-11T01:29:18.794Z,932
2018-02-11T01:30:20.854Z,931.9
2018-02-11T01:31:22.887Z,931.9
2018-02-11T01:32:26.126Z,931.9
2018-02-11T01:33:28.911Z,931.9
2018-02-11T01:34:32.231Z,931.9
2018-02-11T01:35:36.921Z,931.8
2018-02-11T01:36:39.506Z,931.8
2018-02-11T01:37:42.139Z,931.9
2018-02-11T01:38:48.215Z,931.9
2018-02-11T01:39:49.994Z,931.9
2018-02-11T01:40:53.960Z,931.9
2018-02-11T01:41:55.970Z,931.8
2018-02-11T01:42:58.615Z,931.9
2018-02-11T01:44:02.449Z,931.9
2018-02-11T01:45:04.361Z,931.9
2018-02-11T01:46:07.883Z,931.8
2018-02-11T01:47:10.753Z,931.9
2018-02-11T01:48:12.746Z,931.8
2018-02-11T01:49:51.405Z,931.9
2018-02-11T01:50:53.408Z,931.9
2018-02-11T01:51:55.226Z,931.8
2018-02-11T01:52:57.822Z,931.8
2018-02-11T01:54:00.279Z,931.8
2018-02-11T01:55:02.232Z,931.8
2018-02-11T01:56:04.291Z,931.8
2018-02-11T01:57:06.158Z,931.8
2018-02-11T01:58:08.977Z,931.8
2018-02-11T01:59:12.191Z,931.8
2018-02-11T02:00:20.496Z,931.7
2018-02-11T02:01:25.702Z,931.6
2018-02-11T02:02:27.738Z,931.7
2018-02-11T02:03:30.373Z,931.7
2018-02-11T02:04:34.876Z,926.9
2018-02-11T02:05:36.767Z,931.5
2018-02-11T02:06:38.920Z,931.5
2018-02-11T02:07:40.870Z,931.6
2018-02-11T02:08:42.888Z,931.5
2018-02-11T02:09:46.379Z,931.4
2018-02-11T02:10:53.944Z,931.4
2018-02-11T02:12:00.311Z,931.4
2018-02-11T02:13:02.254Z,931.5
2018-02-11T02:14:04.191Z,931.5
2018-02-11T02:15:06.190Z,931.4
2018-02-11T02:16:08.095Z,931.3
2018-02-11T02:17:12.311Z,931.4
2018-02-11T02:18:15.684Z,931.3
2018-02-11T02:19:17.399Z,931.3
2018-02-11T02:20:19.389Z,931.3
2018-02-11T02:21:25.081Z,931.3
2018-02-11T02:22:27.149Z,931.3
2018-02-11T02:23:29.777Z,931.2
2018-02-11T02:24:31.810Z,931.2
2018-02-11T02:25:33.833Z,931.2
2018-02-11T02:26:35.799Z,931.2
2018-02-11T02:27:38.251Z,931.1
2018-02-11T02:28:40.162Z,931.1
2018-02-11T02:29:42.722Z,931.2
2018-02-11T02:30:44.636Z,931.1
2018-02-11T02:31:49.958Z,926.8
2018-02-11T02:32:51.966Z,931
2018-02-11T02:33:53.969Z,931
2018-02-11T02:34:55.759Z,931
2018-02-11T02:35:57.770Z,931
2018-02-11T02:36:59.826Z,931
2018-02-11T02:38:01.846Z,930.9
2018-02-11T02:39:03.739Z,930.9
2018-02-11T02:40:05.659Z,930.9
2018-02-11T02:41:08.545Z,930.9
2018-02-11T02:42:15.333Z,930.8
2018-02-11T02:43:19.372Z,930.8
2018-02-11T02:44:21.347Z,930.8
2018-02-11T02:45:23.263Z,930.8
2018-02-11T02:46:25.373Z,930.8
2018-02-11T02:47:27.535Z,930.7
2018-02-11T02:48:29.516Z,930.6
2018-02-11T02:49:32.128Z,930.7
2018-02-11T02:50:34.017Z,930.7
2018-02-11T02:51:37.077Z,930.7
2018-02-11T02:53:15.394Z,930.7
2018-02-11T02:54:17.284Z,930.7
2018-02-11T02:55:19.964Z,930.7
2018-02-11T02:56:21.922Z,930.7
2018-02-11T02:57:23.673Z,930.6
2018-02-11T02:58:27.072Z,930.6
2018-02-11T02:59:29.221Z,930.6
2018-02-11T03:00:31.001Z,930.5
2018-02-11T03:01:33.068Z,930.5
2018-02-11T03:02:35.581Z,930.5
2018-02-11T03:03:43.614Z,930.6
2018-02-11T03:04:46.081Z,930.5
2018-02-11T03:05:47.885Z,930.5
2018-02-11T03:06:49.877Z,930.6
2018-02-11T03:07:52.553Z,930.5
2018-02-11T03:08:55.294Z,930.6
2018-02-11T03:09:57.939Z,930.4
2018-02-11T03:10:59.929Z,930.6
2018-02-11T03:12:02.542Z,930.5
2018-02-11T03:13:04.408Z,930.4
2018-02-11T03:14:12.012Z,930.4
2018-02-11T03:15:14.650Z,930.4
2018-02-11T03:16:17.200Z,930.3
2018-02-11T03:17:19.210Z,930.3
2018-02-11T03:18:22.045Z,930.3
2018-02-11T03:19:25.927Z,930.2
2018-02-11T03:20:27.854Z,930.3
2018-02-11T03:21:30.294Z,930.3
2018-02-11T03:22:32.060Z,930.2
2018-02-11T03:23:34.013Z,930.3
2018-02-11T03:24:40.069Z,930.2
2018-02-11T03:25:42.056Z,930.3
2018-02-11T03:26:44.988Z,930.2
2018-02-11T03:27:47.348Z,930.2
2018-02-11T03:28:49.298Z,930.3
2018-02-11T03:29:51.332Z,930.2
2018-02-11T03:30:53.796Z,930.1
2018-02-11T03:31:55.878Z,930.2
2018-02-11T03:32:58.435Z,930.2
2018-02-11T03:34:00.264Z,930.1
2018-02-11T03:35:05.683Z,930.2
2018-02-11T03:36:07.517Z,930.1
2018-02-11T03:37:10.046Z,930.1
2018-02-11T03:38:12.597Z,930.1
2018-02-11T03:39:14.581Z,930.1
2018-02-11T03:40:18.162Z,930.1
2018-02-11T03:41:21.077Z,930.1
2018-02-11T03:42:25.201Z,930.1
2018-02-11T03:43:27.687Z,930.1
2018-02-11T03:44:30.349Z,930.2
2018-02-11T03:45:39.419Z,930.1
2018-02-11T03:46:42.698Z,930.1
2018-02-11T03:47:45.942Z,930.1
2018-02-11T03:48:49.812Z,930.1
2018-02-11T03:49:53.167Z,930.1
2018-02-11T03:50:57.434Z,930.2
2018-02-11T03:52:01.519Z,930.1
2018-02-11T03:53:04.876Z,930.1
2018-02-11T03:54:08.547Z,930.1
2018-02-11T03:55:13.021Z,930.2
2018-02-11T03:56:20.859Z,930.1
2018-02-11T03:57:24.218Z,930.3
2018-02-11T03:58:27.801Z,930.1
2018-02-11T03:59:31.699Z,930.1
2018-02-11T04:00:34.997Z,930.1
2018-02-11T04:01:39.487Z,930.1
2018-02-11T04:02:43.887Z,930.1
2018-02-11T04:03:48.277Z,930.2
2018-02-11T04:04:52.000Z,930.2
2018-02-11T04:05:55.950Z,923.6
2018-02-11T04:07:34.809Z,930.1
2018-02-11T04:08:37.497Z,930.1
2018-02-11T04:09:39.542Z,930.2
2018-02-11T04:10:41.363Z,929.1
2018-02-11T04:11:43.980Z,930.1
2018-02-11T04:12:45.984Z,930
2018-02-11T04:13:48.721Z,930
2018-02-11T04:14:51.782Z,929.9
2018-02-11T04:15:53.661Z,929.9
2018-02-11T04:16:55.550Z,929.9
2018-02-11T04:18:02.993Z,929.8
2018-02-11T04:19:05.493Z,929.8
2018-02-11T04:20:07.276Z,929.8
2018-02-11T04:21:09.764Z,930
2018-02-11T04:22:13.392Z,929.9
2018-02-11T04:23:15.983Z,929.9
2018-02-11T04:24:18.635Z,929.9
2018-02-11T04:25:22.729Z,929.9
2018-02-11T04:26:24.728Z,930
2018-02-11T04:27:27.233Z,929.9
2018-02-11T04:28:34.235Z,929.8
2018-02-11T04:29:36.035Z,929.8
2018-02-11T04:30:38.970Z,929.8
2018-02-11T04:31:42.200Z,925.3
2018-02-11T04:32:45.079Z,929.8
2018-02-11T04:33:48.315Z,929.8
2018-02-11T04:34:52.432Z,929.8
2018-02-11T04:35:55.878Z,929.9
2018-02-11T04:36:57.788Z,929.8
2018-02-11T04:37:59.869Z,929.8
2018-02-11T04:39:06.587Z,929.8
2018-02-11T04:40:09.245Z,929.8
2018-02-11T04:41:12.342Z,929.8
2018-02-11T04:42:14.973Z,929.7
2018-02-11T04:43:16.983Z,929.6
2018-02-11T04:44:19.528Z,929.7
2018-02-11T04:45:22.608Z,929.7
2018-02-11T04:46:24.618Z,929.7
2018-02-11T04:47:26.799Z,929.7
2018-02-11T04:48:28.700Z,929.7
2018-02-11T04:49:34.897Z,929.7
2018-02-11T04:50:36.937Z,929.7
2018-02-11T04:51:39.124Z,929.6
2018-02-11T04:52:42.329Z,929.6
2018-02-11T04:53:44.416Z,929.6
2018-02-11T04:54:46.883Z,929.6
2018-02-11T04:55:50.082Z,929.7
2018-02-11T04:56:52.751Z,929.5
2018-02-11T04:57:55.190Z,929.6
2018-02-11T04:58:57.132Z,929.7
2018-02-11T05:00:02.446Z,929.6
2018-02-11T05:01:04.468Z,929.5
2018-02-11T05:02:06.295Z,929.5
2018-02-11T05:03:08.742Z,929.5
2018-02-11T05:04:12.042Z,929.5
2018-02-11T05:05:14.016Z,929.6
2018-02-11T05:06:17.981Z,929.6
2018-02-11T05:07:19.749Z,929.5
2018-02-11T05:08:21.595Z,929.5
2018-02-11T05:09:24.461Z,929.5
2018-02-11T05:10:30.542Z,929.6
2018-02-11T05:11:32.456Z,929.6
2018-02-11T05:12:34.358Z,929.6
2018-02-11T05:13:37.533Z,929.6
2018-02-11T05:14:39.828Z,929.5
2018-02-11T05:15:43.210Z,929.5
2018-02-11T05:16:45.101Z,929.6
2018-02-11T05:17:48.423Z,929.6
2018-02-11T05:18:50.951Z,929.5
2018-02-11T05:19:53.526Z,929.6
2018-02-11T05:20:59.762Z,929.4
2018-02-11T05:22:01.804Z,929.4
2018-02-11T05:23:03.709Z,929.3
2018-02-11T05:24:05.825Z,929.3
2018-02-11T05:25:08.745Z,929.3
2018-02-11T05:26:11.454Z,929.3
2018-02-11T05:27:13.465Z,929.2
2018-02-11T05:28:17.989Z,929.3
2018-02-11T05:29:20.514Z,929.3
2018-02-11T05:30:22.596Z,929.3
2018-02-11T05:31:29.193Z,929.3
2018-02-11T05:32:31.160Z,929.3
2018-02-11T05:33:33.230Z,929.3
2018-02-11T05:34:35.171Z,929.3
2018-02-11T05:35:37.463Z,929.3
2018-02-11T05:36:39.535Z,929.2
2018-02-11T05:37:42.970Z,929.3
2018-02-11T05:38:45.668Z,929.2
2018-02-11T05:39:51.292Z,929.2
2018-02-11T05:40:53.506Z,929.1
2018-02-11T05:41:59.007Z,929.1
2018-02-11T05:43:01.832Z,929.1
2018-02-11T05:44:05.527Z,929.2
2018-02-11T05:45:07.596Z,924.4
2018-02-11T05:46:09.887Z,929.1
2018-02-11T05:47:12.441Z,929.2
2018-02-11T05:48:14.399Z,929.1
2018-02-11T05:49:17.060Z,929.2
2018-02-11T05:50:19.058Z,929.2
2018-02-11T05:51:21.114Z,929.1
2018-02-11T05:52:27.295Z,927.3
2018-02-11T05:53:29.943Z,929.1
2018-02-11T05:54:33.516Z,929.2
2018-02-11T05:55:35.441Z,929.3
2018-02-11T05:56:47.363Z,929.3
2018-02-11T05:57:51.567Z,929.2
2018-02-11T05:58:54.194Z,929.2
2018-02-11T05:59:57.339Z,924.6
2018-02-11T06:00:59.278Z,929.1
2018-02-11T06:02:01.358Z,929.1
2018-02-11T06:03:07.059Z,929.2
2018-02-11T06:04:10.025Z,929.1
2018-02-11T06:05:12.429Z,929.2
2018-02-11T06:06:14.375Z,929.2
2018-02-11T06:07:16.412Z,929.2
2018-02-11T06:08:18.389Z,929.1
2018-02-11T06:09:20.469Z,929.1
2018-02-11T06:10:22.464Z,929.1
2018-02-11T06:11:25.027Z,929.1
2018-02-11T06:12:26.957Z,929.1
2018-02-11T06:13:32.636Z,929.2
2018-02-11T06:14:34.561Z,928.9
2018-02-11T06:15:37.975Z,929.1
2018-02-11T06:16:41.357Z,928.9
2018-02-11T06:17:45.647Z,928.9
2018-02-11T06:18:50.092Z,928.8
2018-02-11T06:19:52.038Z,928.8
2018-02-11T06:20:54.585Z,928.8
2018-02-11T06:21:56.560Z,928.9
2018-02-11T06:22:58.487Z,928.8
2018-02-11T06:24:05.550Z,928.9
2018-02-11T06:25:07.540Z,929
2018-02-11T06:26:09.472Z,928.9
2018-02-11T06:27:11.409Z,928.8
2018-02-11T06:28:13.416Z,929
2018-02-11T06:29:15.389Z,928.9
2018-02-11T06:30:17.288Z,928.9
2018-02-11T06:31:19.205Z,928.9
2018-02-11T06:32:21.122Z,929
2018-02-11T06:33:23.805Z,928.9
2018-02-11T06:34:31.963Z,928.9
2018-02-11T06:35:36.120Z,928.9
2018-02-11T06:36:40.465Z,928.9
2018-02-11T06:37:42.516Z,928.9
2018-02-11T06:38:44.332Z,928.8
2018-02-11T06:39:47.874Z,928.8
2018-02-11T06:40:49.840Z,928.7
2018-02-11T06:41:52.408Z,928.8
2018-02-11T06:42:54.412Z,928.7
2018-02-11T06:43:56.416Z,928.8
2018-02-11T06:45:03.081Z,928.8
2018-02-11T06:46:05.602Z,928.7
2018-02-11T06:47:09.157Z,928.8
2018-02-11T06:48:12.474Z,928.8
2018-02-11T06:49:15.883Z,928.8
2018-02-11T06:50:19.664Z,928.8
2018-02-11T06:51:22.917Z,928.7
2018-02-11T06:52:26.550Z,928.8
2018-02-11T06:53:30.055Z,928.8
2018-02-11T06:54:33.392Z,928.8
2018-02-11T06:55:40.474Z,928.8
2018-02-11T06:56:43.909Z,928.9
2018-02-11T06:57:49.076Z,928.8
2018-02-11T06:58:52.515Z,928.8
2018-02-11T06:59:55.904Z,928.8
2018-02-11T07:00:58.366Z,928.9
2018-02-11T07:02:01.806Z,928.8
2018-02-11T07:03:05.320Z,928.8
2018-02-11T07:04:08.777Z,928.8
2018-02-11T07:05:10.666Z,928.8
2018-02-11T07:06:18.945Z,928.8
2018-02-11T07:07:22.623Z,928.8
2018-02-11T07:08:24.683Z,928.8
2018-02-11T07:09:26.620Z,928.8
2018-02-11T07:10:28.671Z,928.8
2018-02-11T07:11:30.665Z,928.7
2018-02-11T07:12:32.723Z,928.6
2018-02-11T07:13:34.763Z,928.7
2018-02-11T07:14:38.181Z,928.7
2018-02-11T07:15:40.906Z,928.7
2018-02-11T07:17:19.773Z,928.8
2018-02-11T07:18:22.916Z,928.8
2018-02-11T07:19:26.966Z,928.8
2018-02-11T07:20:30.380Z,928.8
2018-02-11T07:21:32.435Z,928.7
2018-02-11T07:22:36.411Z,928.8
2018-02-11T07:23:39.443Z,928.8
2018-02-11T07:24:41.375Z,928.8
2018-02-11T07:25:46.210Z,924.1
2018-02-11T07:26:48.201Z,928.8
2018-02-11T07:27:54.272Z,928.8
2018-02-11T07:28:58.828Z,928.8
2018-02-11T07:30:00.848Z,928.7
2018-02-11T07:31:04.475Z,928.6
2018-02-11T07:32:06.384Z,928.6
2018-02-11T07:33:08.857Z,928.6
2018-02-11T07:34:10.888Z,928.7
2018-02-11T07:35:14.257Z,928.7
2018-02-11T07:36:17.790Z,928.6
2018-02-11T07:37:19.830Z,928.5
2018-02-11T07:38:26.018Z,928.6
2018-02-11T07:39:28.037Z,928.6
2018-02-11T07:40:30.020Z,928.6
2018-02-11T07:41:34.228Z,928.5
2018-02-11T07:42:36.172Z,928.5
2018-02-11T07:43:38.621Z,928.5
2018-02-11T07:44:40.805Z,928.6
2018-02-11T07:45:42.768Z,928.6
2018-02-11T07:46:44.755Z,928.5
2018-02-11T07:47:47.453Z,928.5
2018-02-11T07:48:54.351Z,928.5
2018-02-11T07:49:58.141Z,928.5
2018-02-11T07:51:01.488Z,928.6
2018-02-11T07:52:03.517Z,928.5
2018-02-11T07:53:05.496Z,928.6
2018-02-11T07:54:07.498Z,928.5
2018-02-11T07:55:09.842Z,928.6
2018-02-11T07:56:11.758Z,928.6
2018-02-11T07:57:13.595Z,928.6
2018-02-11T07:58:15.603Z,924.3
2018-02-11T07:59:21.829Z,928.6
2018-02-11T08:00:23.822Z,928.5
2018-02-11T08:01:26.416Z,928.5
2018-02-11T08:02:28.498Z,928.5
2018-02-11T08:03:32.697Z,928.4
2018-02-11T08:04:34.687Z,928.4
2018-02-11T08:05:36.806Z,928.5
2018-02-11T08:06:40.135Z,928.3
2018-02-11T08:07:42.118Z,928.4
2018-02-11T08:08:43.975Z,928.4
2018-02-11T08:09:49.254Z,928.5
2018-02-11T08:10:51.221Z,928.4
2018-02-11T08:11:53.857Z,928.4
2018-02-11T08:12:57.385Z,928.3
2018-02-11T08:13:59.385Z,928.4
2018-02-11T08:15:01.847Z,928.4
2018-02-11T08:16:03.893Z,928.3
2018-02-11T08:17:05.943Z,928.3
2018-02-11T08:18:09.126Z,928.2
2018-02-11T08:19:10.989Z,928.3
2018-02-11T08:20:17.304Z,928.3
2018-02-11T08:21:19.604Z,928.2
2018-02-11T08:22:21.636Z,928.2
2018-02-11T08:23:23.816Z,928.2
2018-02-11T08:24:26.463Z,928.2
2018-02-11T08:25:28.445Z,928.2
2018-02-11T08:26:32.035Z,928.2
2018-02-11T08:27:34.084Z,928.3
2018-02-11T08:28:36.597Z,928.1
2018-02-11T08:29:39.517Z,928.2
2018-02-11T08:30:49.037Z,928.2
2018-02-11T08:31:52.457Z,928.2
2018-02-11T08:32:56.972Z,928.2
2018-02-11T08:34:00.528Z,928.2
2018-02-11T08:35:04.061Z,928
2018-02-11T08:36:08.488Z,928.1
2018-02-11T08:37:10.725Z,928.1
2018-02-11T08:38:12.612Z,928.1
2018-02-11T08:39:14.626Z,928.1
2018-02-11T08:40:18.164Z,928.1
2018-02-11T08:41:25.090Z,928.1
2018-02-11T08:42:28.619Z,928
2018-02-11T08:43:34.286Z,928.1
2018-02-11T08:44:37.803Z,928.1
2018-02-11T08:45:41.208Z,928.1
2018-02-11T08:46:44.640Z,928.1
2018-02-11T08:47:48.560Z,928
2018-02-11T08:48:52.220Z,923.5
2018-02-11T08:49:57.077Z,927.9
2018-02-11T08:50:58.959Z,927.9
2018-02-11T08:52:04.620Z,928
2018-02-11T08:53:06.638Z,927.8
2018-02-11T08:54:08.714Z,927.9
2018-02-11T08:55:10.825Z,927.9
2018-02-11T08:56:12.686Z,927.9
2018-02-11T08:57:15.528Z,927.9
2018-02-11T08:58:17.608Z,927.9
2018-02-11T08:59:19.614Z,927.9
2018-02-11T09:00:22.985Z,927.8
2018-02-11T09:01:25.693Z,927.8
2018-02-11T09:03:03.898Z,927.8
2018-02-11T09:04:06.012Z,927.8
2018-02-11T09:05:07.971Z,927.8
2018-02-11T09:06:10.006Z,927.9
2018-02-11T09:07:12.008Z,927.8
2018-02-11T09:08:14.129Z,927.7
2018-02-11T09:09:17.002Z,927.7
2018-02-11T09:10:19.608Z,927.7
2018-02-11T09:11:21.502Z,927.7
2018-02-11T09:12:24.113Z,927.7
2018-02-11T09:13:29.915Z,927.7
2018-02-11T09:14:32.007Z,927.7
2018-02-11T09:15:33.950Z,927.7
2018-02-11T09:16:35.989Z,927.6
2018-02-11T09:17:37.921Z,927.7
2018-02-11T09:18:41.940Z,927.6
2018-02-11T09:19:44.126Z,927.7
2018-02-11T09:20:46.301Z,923.5
2018-02-11T09:21:48.433Z,927.5
2018-02-11T09:22:50.458Z,927.4
2018-02-11T09:23:56.347Z,927.4
2018-02-11T09:24:58.359Z,927.3
2018-02-11T09:26:01.539Z,927.2
2018-02-11T09:27:03.444Z,927.3
2018-02-11T09:28:07.908Z,927.3
2018-02-11T09:29:09.885Z,927.3
2018-02-11T09:30:11.974Z,927.2
2018-02-11T09:31:13.914Z,927.2
2018-02-11T09:32:15.876Z,927.1
2018-02-11T09:33:17.829Z,927.1
2018-02-11T09:34:23.602Z,927
2018-02-11T09:35:25.610Z,927.1
2018-02-11T09:36:27.789Z,927
2018-02-11T09:37:31.937Z,927
2018-02-11T09:38:34.066Z,926.9
2018-02-11T09:39:36.052Z,926.9
2018-02-11T09:40:38.359Z,926.9
2018-02-11T09:41:40.288Z,926.9
2018-02-11T09:42:42.260Z,926.7
2018-02-11T09:43:44.378Z,926.8
2018-02-11T09:45:22.741Z,926.7
2018-02-11T09:46:27.468Z,926.7
2018-02-11T09:47:30.948Z,926.8
2018-02-11T09:48:34.913Z,926.8
2018-02-11T09:49:38.531Z,926.8
2018-02-11T09:50:40.520Z,926.7
2018-02-11T09:51:43.015Z,926.7
2018-02-11T09:52:46.976Z,926.7
2018-02-11T09:53:52.059Z,926.8
2018-02-11T09:54:55.991Z,926.7
2018-02-11T09:56:04.720Z,926.7
2018-02-11T09:57:07.305Z,926.7
2018-02-11T09:58:09.247Z,926.6
2018-02-11T09:59:12.643Z,926.5
2018-02-11T10:00:15.230Z,926.6
2018-02-11T10:01:18.587Z,926.6
2018-02-11T10:02:21.044Z,926.7
2018-02-11T10:03:23.903Z,926.7
2018-02-11T10:04:26.390Z,922.3
2018-02-11T10:05:29.562Z,926.6
2018-02-11T10:06:39.453Z,926.6
2018-02-11T10:07:44.875Z,926.6
2018-02-11T10:08:50.285Z,926.6
2018-02-11T10:09:52.472Z,922.3
2018-02-11T10:10:58.885Z,926.5
2018-02-11T10:12:01.391Z,926.6
2018-02-11T10:13:04.664Z,926.6
2018-02-11T10:14:07.993Z,926.5
2018-02-11T10:15:10.452Z,926.5
2018-02-11T10:16:13.563Z,926.5
2018-02-11T10:17:21.152Z,926.5
2018-02-11T10:18:23.151Z,926.4
2018-02-11T10:19:26.388Z,926.5
2018-02-11T10:20:28.398Z,926.5
2018-02-11T10:21:30.424Z,926.4
2018-02-11T10:22:32.511Z,926.5
2018-02-11T10:23:34.581Z,926.4
2018-02-11T10:24:37.215Z,926.4
2018-02-11T10:25:39.682Z,926.5
2018-02-11T10:26:41.846Z,926.5
2018-02-11T10:27:47.365Z,926.5
2018-02-11T10:28:50.661Z,926.4
2018-02-11T10:29:53.620Z,926.5
2018-02-11T10:30:56.967Z,926.5
2018-02-11T10:31:59.644Z,926.5
2018-02-11T10:33:03.932Z,926.4
2018-02-11T10:34:05.819Z,926.5
2018-02-11T10:35:07.754Z,926.5
2018-02-11T10:36:10.572Z,926.4
2018-02-11T10:37:13.253Z,926.5
2018-02-11T10:38:20.386Z,926.3
2018-02-11T10:39:23.917Z,926.4
2018-02-11T10:40:25.959Z,926.4
2018-02-11T10:41:30.280Z,926.5
2018-02-11T10:42:42.352Z,926.4
2018-02-11T10:43:44.370Z,926.2
2018-02-11T10:44:46.457Z,926.3
2018-02-11T10:45:49.160Z,926.3
2018-02-11T10:48:58.811Z,926.1
